Pagrindinis puslapis
METAR-TAF:

METAR-TAF

Oro uostai :

Half Moon Bay, Kalifornija, Jungtinės Amerikos Valstijos

platuma: 37-30-48N, ilguma: 122-30-04W, Aukštis: 20 m

Dabartinis oras

Ataskaita buvo paskelbta 16 minutes, ne 23:35 UTC
Vėjas 14 kt iš Šiaurės/Šiaurės Vakarų
Temperatūra 11°C
Drėgmė 94%
Slėgis 1017 hPa
Matomumas: 11.3 km
Giedras dangus

METAR: KHAF 252335Z AUTO 34014KT 7SM CLR 11/10 A3003 RMK AO2

Laikas: 15:51 (23:51 UTC)


TAF: trūkstamas

Orai ataskaitas ir orų prognozės (METAR, TAF).

turimą stotys yra geltonos ir raudonos taškus žemėlapyje.

Perkelti pele per norėdami pamatyti stoties vardą.

Tada spustelėkite, norėdami matyti oro stebėjimo ir prognozės.

Norėdami pakeisti žemėlapį: spustelėkite ant žalios mygtukų su juodo kryžiaus žemyn,; žalią mygtuką su brūkšneliu, jei norite nutolinti; arba žalių rodyklių gretimoms žemėlapius.


METAR-TAF: